sensor_id;sensor_type;location;lat;lon;timestamp;pressure;altitude;pressure_sealevel;temperature;humidity
10706;BME280;5404;42.656;23.336;2023-07-20T00:01:36;94502.59;;;23.42;100.00
10706;BME280;5404;42.656;23.336;2023-07-20T00:04:03;94461.63;;;23.06;100.00
10706;BME280;5404;42.656;23.336;2023-07-20T00:06:28;94444.91;;;22.97;100.00
10706;BME280;5404;42.656;23.336;2023-07-20T00:08:54;94503.41;;;23.42;100.00
10706;BME280;5404;42.656;23.336;2023-07-20T00:11:26;94501.41;;;23.36;100.00
10706;BME280;5404;42.656;23.336;2023-07-20T00:13:51;94508.38;;;23.30;100.00
10706;BME280;5404;42.656;23.336;2023-07-20T00:16:17;94508.75;;;23.28;100.00
10706;BME280;5404;42.656;23.336;2023-07-20T00:18:42;94423.47;;;22.78;100.00
10706;BME280;5404;42.656;23.336;2023-07-20T00:21:08;94505.28;;;23.35;100.00
10706;BME280;5404;42.656;23.336;2023-07-20T00:23:33;94510.31;;;23.29;100.00
10706;BME280;5404;42.656;23.336;2023-07-20T00:25:59;94513.47;;;23.38;100.00
10706;BME280;5404;42.656;23.336;2023-07-20T00:28:24;94430.88;;;22.88;100.00
10706;BME280;5404;42.656;23.336;2023-07-20T00:30:50;94522.03;;;23.40;100.00
10706;BME280;5404;42.656;23.336;2023-07-20T00:33:16;94432.84;;;22.91;100.00
10706;BME280;5404;42.656;23.336;2023-07-20T00:35:43;94500.66;;;23.39;100.00
10706;BME280;5404;42.656;23.336;2023-07-20T00:38:08;94513.47;;;23.38;100.00
10706;BME280;5404;42.656;23.336;2023-07-20T00:40:41;94506.84;;;23.29;100.00
10706;BME280;5404;42.656;23.336;2023-07-20T00:43:07;94506.03;;;23.28;100.00
10706;BME280;5404;42.656;23.336;2023-07-20T00:45:33;94508.69;;;23.21;100.00
10706;BME280;5404;42.656;23.336;2023-07-20T00:48:01;94510.59;;;23.17;100.00
10706;BME280;5404;42.656;23.336;2023-07-20T00:50:28;94524.53;;;23.08;100.00
10706;BME280;5404;42.656;23.336;2023-07-20T00:52:55;94506.66;;;23.04;100.00
10706;BME280;5404;42.656;23.336;2023-07-20T00:55:23;94488.34;;;22.90;100.00
10706;BME280;5404;42.656;23.336;2023-07-20T00:57:49;94491.41;;;22.82;100.00
10706;BME280;5404;42.656;23.336;2023-07-20T01:00:15;94496.00;;;22.74;100.00
10706;BME280;5404;42.656;23.336;2023-07-20T01:02:40;94505.25;;;22.66;100.00
10706;BME280;5404;42.656;23.336;2023-07-20T01:05:06;94474.00;;;22.43;100.00
10706;BME280;5404;42.656;23.336;2023-07-20T01:07:36;94508.97;;;22.51;100.00
10706;BME280;5404;42.656;23.336;2023-07-20T01:10:19;94448.06;;;21.98;100.00
10706;BME280;5404;42.656;23.336;2023-07-20T01:12:51;94514.72;;;22.39;100.00
10706;BME280;5404;42.656;23.336;2023-07-20T01:15:17;94526.31;;;22.36;100.00
10706;BME280;5404;42.656;23.336;2023-07-20T01:17:43;94498.56;;;22.10;100.00
10706;BME280;5404;42.656;23.336;2023-07-20T01:20:13;94529.56;;;22.09;100.00
10706;BME280;5404;42.656;23.336;2023-07-20T01:33:05;94523.50;;;21.52;100.00
10706;BME280;5404;42.656;23.336;2023-07-20T01:35:33;94540.22;;;21.58;100.00
10706;BME280;5404;42.656;23.336;2023-07-20T01:38:00;94545.16;;;21.49;100.00
10706;BME280;5404;42.656;23.336;2023-07-20T01:40:25;94539.69;;;21.45;100.00
10706;BME280;5404;42.656;23.336;2023-07-20T01:42:52;94549.03;;;21.48;100.00
10706;BME280;5404;42.656;23.336;2023-07-20T01:45:18;94540.94;;;21.51;100.00
10706;BME280;5404;42.656;23.336;2023-07-20T01:47:44;94544.31;;;21.45;100.00
10706;BME280;5404;42.656;23.336;2023-07-20T01:50:10;94546.03;;;21.27;100.00
10706;BME280;5404;42.656;23.336;2023-07-20T01:52:36;94543.19;;;21.16;100.00
10706;BME280;5404;42.656;23.336;2023-07-20T01:55:01;94537.56;;;21.02;100.00
10706;BME280;5404;42.656;23.336;2023-07-20T01:57:28;94530.69;;;20.82;100.00
10706;BME280;5404;42.656;23.336;2023-07-20T01:59:53;94543.53;;;20.88;100.00
10706;BME280;5404;42.656;23.336;2023-07-20T02:02:20;94543.78;;;20.80;100.00
10706;BME280;5404;42.656;23.336;2023-07-20T02:04:45;94538.78;;;20.82;100.00
10706;BME280;5404;42.656;23.336;2023-07-20T02:07:11;94546.91;;;20.82;100.00
10706;BME280;5404;42.656;23.336;2023-07-20T02:09:36;94540.41;;;20.86;100.00
10706;BME280;5404;42.656;23.336;2023-07-20T02:12:03;94534.97;;;20.86;100.00
10706;BME280;5404;42.656;23.336;2023-07-20T02:14:29;94526.84;;;20.86;100.00
10706;BME280;5404;42.656;23.336;2023-07-20T02:16:54;94536.97;;;20.90;100.00
10706;BME280;5404;42.656;23.336;2023-07-20T02:19:24;94544.00;;;20.94;100.00
10706;BME280;5404;42.656;23.336;2023-07-20T02:21:50;94537.50;;;20.99;100.00
10706;BME280;5404;42.656;23.336;2023-07-20T02:24:15;94548.34;;;20.99;100.00
10706;BME280;5404;42.656;23.336;2023-07-20T02:26:41;94508.59;;;20.80;100.00
10706;BME280;5404;42.656;23.336;2023-07-20T02:29:07;94541.06;;;21.03;100.00
10706;BME280;5404;42.656;23.336;2023-07-20T02:31:33;94548.34;;;20.99;100.00
10706;BME280;5404;42.656;23.336;2023-07-20T02:33:58;94531.84;;;20.84;100.00
10706;BME280;5404;42.656;23.336;2023-07-20T02:36:24;94521.75;;;20.81;100.00
10706;BME280;5404;42.656;23.336;2023-07-20T02:38:49;94538.16;;;20.92;100.00
10706;BME280;5404;42.656;23.336;2023-07-20T02:41:15;94548.22;;;20.92;100.00
10706;BME280;5404;42.656;23.336;2023-07-20T02:43:40;94517.75;;;20.72;100.00
10706;BME280;5404;42.656;23.336;2023-07-20T02:46:06;94534.13;;;20.79;100.00
10706;BME280;5404;42.656;23.336;2023-07-20T02:48:31;94470.41;;;20.36;100.00
10706;BME280;5404;42.656;23.336;2023-07-20T02:50:56;94519.56;;;20.64;100.00
10706;BME280;5404;42.656;23.336;2023-07-20T02:53:22;94537.13;;;20.74;100.00
10706;BME280;5404;42.656;23.336;2023-07-20T02:55:47;94453.06;;;20.37;100.00
10706;BME280;5404;42.656;23.336;2023-07-20T02:58:13;94526.69;;;20.76;100.00
10706;BME280;5404;42.656;23.336;2023-07-20T03:00:38;94540.19;;;20.72;100.00
10706;BME280;5404;42.656;23.336;2023-07-20T03:03:04;94537.03;;;20.67;100.00
10706;BME280;5404;42.656;23.336;2023-07-20T03:05:29;94503.78;;;20.44;100.00
10706;BME280;5404;42.656;23.336;2023-07-20T03:07:56;94510.72;;;20.41;100.00
10706;BME280;5404;42.656;23.336;2023-07-20T03:10:22;94539.25;;;20.61;100.00
10706;BME280;5404;42.656;23.336;2023-07-20T03:12:47;94547.00;;;20.63;100.00
10706;BME280;5404;42.656;23.336;2023-07-20T03:15:13;94473.63;;;20.19;100.00
10706;BME280;5404;42.656;23.336;2023-07-20T03:17:38;94532.25;;;20.57;100.00
10706;BME280;5404;42.656;23.336;2023-07-20T03:20:04;94538.41;;;20.57;100.00
10706;BME280;5404;42.656;23.336;2023-07-20T03:22:34;94565.59;;;20.64;100.00
10706;BME280;5404;42.656;23.336;2023-07-20T03:24:59;94553.28;;;20.67;100.00
10706;BME280;5404;42.656;23.336;2023-07-20T03:27:24;94541.28;;;20.68;100.00
10706;BME280;5404;42.656;23.336;2023-07-20T03:29:50;94549.03;;;20.69;100.00
10706;BME280;5404;42.656;23.336;2023-07-20T03:32:15;94555.94;;;20.90;100.00
10706;BME280;5404;42.656;23.336;2023-07-20T03:34:41;94545.91;;;20.94;100.00
10706;BME280;5404;42.656;23.336;2023-07-20T03:37:06;94546.56;;;21.10;100.00
10706;BME280;5404;42.656;23.336;2023-07-20T03:39:32;94537.38;;;21.18;100.00
10706;BME280;5404;42.656;23.336;2023-07-20T03:41:58;94541.75;;;21.26;100.00
10706;BME280;5404;42.656;23.336;2023-07-20T03:44:24;94536.38;;;21.29;100.00
10706;BME280;5404;42.656;23.336;2023-07-20T03:46:49;94541.88;;;21.36;100.00
10706;BME280;5404;42.656;23.336;2023-07-20T03:49:15;94545.47;;;21.44;100.00
10706;BME280;5404;42.656;23.336;2023-07-20T03:51:40;94538.22;;;21.51;100.00
10706;BME280;5404;42.656;23.336;2023-07-20T03:54:06;94556.06;;;21.56;100.00
10706;BME280;5404;42.656;23.336;2023-07-20T03:56:33;94551.88;;;21.62;100.00
10706;BME280;5404;42.656;23.336;2023-07-20T03:59:00;94541.13;;;21.69;100.00
10706;BME280;5404;42.656;23.336;2023-07-20T04:01:26;94540.78;;;21.74;100.00
10706;BME280;5404;42.656;23.336;2023-07-20T04:03:51;94545.69;;;21.91;100.00
10706;BME280;5404;42.656;23.336;2023-07-20T04:06:17;94542.28;;;22.01;100.00
10706;BME280;5404;42.656;23.336;2023-07-20T04:08:43;94542.72;;;22.07;100.00
10706;BME280;5404;42.656;23.336;2023-07-20T04:11:08;94530.03;;;22.18;100.00
10706;BME280;5404;42.656;23.336;2023-07-20T04:13:35;94452.25;;;21.88;100.00
10706;BME280;5404;42.656;23.336;2023-07-20T04:16:00;94540.78;;;22.47;100.00
10706;BME280;5404;42.656;23.336;2023-07-20T04:18:26;94519.84;;;22.51;100.00
10706;BME280;5404;42.656;23.336;2023-07-20T04:20:51;94518.38;;;22.57;100.00
10706;BME280;5404;42.656;23.336;2023-07-20T04:23:17;94483.69;;;22.40;100.00
10706;BME280;5404;42.656;23.336;2023-07-20T04:25:42;94515.75;;;22.68;100.00
10706;BME280;5404;42.656;23.336;2023-07-20T04:28:08;94507.66;;;22.75;100.00
10706;BME280;5404;42.656;23.336;2023-07-20T04:30:36;94500.72;;;22.84;100.00
10706;BME280;5404;42.656;23.336;2023-07-20T04:33:03;94427.88;;;22.46;100.00
10706;BME280;5404;42.656;23.336;2023-07-20T04:35:49;94498.81;;;22.88;100.00
10706;BME280;5404;42.656;23.336;2023-07-20T04:38:15;94502.72;;;22.94;100.00
10706;BME280;5404;42.656;23.336;2023-07-20T04:40:46;94501.63;;;23.02;100.00
10706;BME280;5404;42.656;23.336;2023-07-20T04:43:12;94482.25;;;23.11;100.00
10706;BME280;5404;42.656;23.336;2023-07-20T04:45:37;94485.75;;;23.19;100.00
10706;BME280;5404;42.656;23.336;2023-07-20T04:48:06;94481.59;;;23.32;100.00
10706;BME280;5404;42.656;23.336;2023-07-20T04:50:32;94479.63;;;23.32;100.00
10706;BME280;5404;42.656;23.336;2023-07-20T04:52:57;94477.34;;;23.41;100.00
10706;BME280;5404;42.656;23.336;2023-07-20T04:55:23;94416.97;;;23.00;100.00
10706;BME280;5404;42.656;23.336;2023-07-20T04:57:50;94473.50;;;23.56;100.00
10706;BME280;5404;42.656;23.336;2023-07-20T05:00:15;94477.47;;;23.73;100.00
10706;BME280;5404;42.656;23.336;2023-07-20T05:02:42;94473.97;;;23.79;100.00
10706;BME280;5404;42.656;23.336;2023-07-20T05:05:08;94475.91;;;23.82;100.00
10706;BME280;5404;42.656;23.336;2023-07-20T05:07:34;94445.97;;;23.61;100.00
10706;BME280;5404;42.656;23.336;2023-07-20T05:09:59;94404.59;;;23.13;100.00
10706;BME280;5404;42.656;23.336;2023-07-20T05:12:25;94466.06;;;23.39;100.00
10706;BME280;5404;42.656;23.336;2023-07-20T05:14:51;94470.56;;;23.03;100.00
10706;BME280;5404;42.656;23.336;2023-07-20T05:17:16;94475.94;;;22.93;100.00
10706;BME280;5404;42.656;23.336;2023-07-20T05:19:41;94460.03;;;22.95;100.00
10706;BME280;5404;42.656;23.336;2023-07-20T05:22:07;94479.59;;;23.22;100.00
10706;BME280;5404;42.656;23.336;2023-07-20T05:24:32;94489.81;;;23.46;100.00
10706;BME280;5404;42.656;23.336;2023-07-20T05:26:58;94464.63;;;23.63;100.00
10706;BME280;5404;42.656;23.336;2023-07-20T05:29:24;94470.84;;;23.81;100.00
10706;BME280;5404;42.656;23.336;2023-07-20T05:31:50;94467.38;;;23.91;100.00
10706;BME280;5404;42.656;23.336;2023-07-20T05:34:15;94479.50;;;24.11;100.00
10706;BME280;5404;42.656;23.336;2023-07-20T05:36:41;94420.34;;;23.80;100.00
10706;BME280;5404;42.656;23.336;2023-07-20T05:39:06;94472.09;;;24.22;100.00
10706;BME280;5404;42.656;23.336;2023-07-20T05:41:32;94468.25;;;24.23;100.00
10706;BME280;5404;42.656;23.336;2023-07-20T05:43:57;94487.69;;;24.18;100.00
10706;BME280;5404;42.656;23.336;2023-07-20T05:46:23;94487.69;;;24.18;100.00
10706;BME280;5404;42.656;23.336;2023-07-20T05:48:49;94485.34;;;24.23;100.00
10706;BME280;5404;42.656;23.336;2023-07-20T05:51:15;94489.25;;;24.30;100.00
10706;BME280;5404;42.656;23.336;2023-07-20T05:53:40;94486.13;;;24.45;100.00
10706;BME280;5404;42.656;23.336;2023-07-20T05:56:06;94483.00;;;24.50;100.00
10706;BME280;5404;42.656;23.336;2023-07-20T05:58:35;94491.59;;;24.59;100.00
10706;BME280;5404;42.656;23.336;2023-07-20T06:01:00;94485.75;;;24.61;100.00
10706;BME280;5404;42.656;23.336;2023-07-20T06:03:27;94483.78;;;24.58;100.00
10706;BME280;5404;42.656;23.336;2023-07-20T06:05:59;94474.06;;;24.67;100.00
10706;BME280;5404;42.656;23.336;2023-07-20T06:08:24;94462.38;;;24.70;100.00
10706;BME280;5404;42.656;23.336;2023-07-20T06:10:51;94397.03;;;24.35;100.00
10706;BME280;5404;42.656;23.336;2023-07-20T06:13:17;94478.69;;;24.98;100.00
10706;BME280;5404;42.656;23.336;2023-07-20T06:15:44;94484.16;;;24.98;100.00
10706;BME280;5404;42.656;23.336;2023-07-20T06:18:09;94485.28;;;25.04;100.00
10706;BME280;5404;42.656;23.336;2023-07-20T06:20:35;94445.59;;;25.03;100.00
10706;BME280;5404;42.656;23.336;2023-07-20T06:23:00;94439.34;;;25.06;100.00
10706;BME280;5404;42.656;23.336;2023-07-20T06:25:27;94374.38;;;24.84;100.00
10706;BME280;5404;42.656;23.336;2023-07-20T06:27:55;94374.34;;;24.94;100.00
10706;BME280;5404;42.656;23.336;2023-07-20T06:30:20;94454.78;;;25.52;100.00
10706;BME280;5404;42.656;23.336;2023-07-20T06:32:46;94450.06;;;25.59;100.00
10706;BME280;5404;42.656;23.336;2023-07-20T06:35:11;94451.97;;;25.66;100.00
10706;BME280;5404;42.656;23.336;2023-07-20T06:37:37;94436.38;;;25.63;100.00
10706;BME280;5404;42.656;23.336;2023-07-20T06:40:03;94449.19;;;25.76;100.00
10706;BME280;5404;42.656;23.336;2023-07-20T06:42:29;94451.50;;;25.81;100.00
10706;BME280;5404;42.656;23.336;2023-07-20T06:44:55;94447.97;;;25.84;100.00
10706;BME280;5404;42.656;23.336;2023-07-20T06:47:20;94449.41;;;26.06;100.00
10706;BME280;5404;42.656;23.336;2023-07-20T06:49:45;94462.66;;;26.08;100.00
10706;BME280;5404;42.656;23.336;2023-07-20T06:52:11;94435.69;;;26.17;100.00
10706;BME280;5404;42.656;23.336;2023-07-20T06:54:37;94442.19;;;26.33;100.00
10706;BME280;5404;42.656;23.336;2023-07-20T06:57:02;94443.41;;;26.29;100.00
10706;BME280;5404;42.656;23.336;2023-07-20T06:59:28;94459.25;;;26.48;100.00
10706;BME280;5404;42.656;23.336;2023-07-20T07:01:53;94451.38;;;26.54;100.00
10706;BME280;5404;42.656;23.336;2023-07-20T07:04:18;94469.06;;;26.90;100.00
10706;BME280;5404;42.656;23.336;2023-07-20T07:06:44;94488.31;;;27.13;100.00
10706;BME280;5404;42.656;23.336;2023-07-20T07:09:09;94467.00;;;27.38;100.00
10706;BME280;5404;42.656;23.336;2023-07-20T07:11:35;94469.06;;;27.57;100.00
10706;BME280;5404;42.656;23.336;2023-07-20T07:14:00;94478.72;;;27.69;100.00
10706;BME280;5404;42.656;23.336;2023-07-20T07:16:27;94489.09;;;27.50;100.00
10706;BME280;5404;42.656;23.336;2023-07-20T07:18:52;94429.84;;;27.03;100.00
10706;BME280;5404;42.656;23.336;2023-07-20T07:21:18;94512.19;;;27.49;100.00
10706;BME280;5404;42.656;23.336;2023-07-20T07:23:45;94520.88;;;27.44;100.00
10706;BME280;5404;42.656;23.336;2023-07-20T07:26:10;94501.44;;;27.32;100.00
10706;BME280;5404;42.656;23.336;2023-07-20T07:28:36;94480.84;;;27.20;100.00
10706;BME280;5404;42.656;23.336;2023-07-20T07:31:04;94509.63;;;27.35;100.00
10706;BME280;5404;42.656;23.336;2023-07-20T07:33:31;94532.75;;;27.31;100.00
10706;BME280;5404;42.656;23.336;2023-07-20T07:35:56;94522.81;;;27.03;100.00
10706;BME280;5404;42.656;23.336;2023-07-20T07:38:22;94453.31;;;26.57;100.00
10706;BME280;5404;42.656;23.336;2023-07-20T07:40:47;94514.41;;;26.84;100.00
10706;BME280;5404;42.656;23.336;2023-07-20T07:43:13;94487.09;;;26.80;100.00
10706;BME280;5404;42.656;23.336;2023-07-20T07:45:39;94502.13;;;26.99;100.00
10706;BME280;5404;42.656;23.336;2023-07-20T07:48:05;94499.75;;;27.04;100.00
10706;BME280;5404;42.656;23.336;2023-07-20T07:50:31;94458.91;;;26.87;100.00
10706;BME280;5404;42.656;23.336;2023-07-20T07:52:56;94475.44;;;27.13;100.00
10706;BME280;5404;42.656;23.336;2023-07-20T07:55:22;94471.78;;;27.27;100.00
10706;BME280;5404;42.656;23.336;2023-07-20T07:57:47;94463.13;;;27.32;100.00
10706;BME280;5404;42.656;23.336;2023-07-20T08:00:14;94472.22;;;27.55;100.00
10706;BME280;5404;42.656;23.336;2023-07-20T08:02:43;94474.34;;;27.75;100.00
10706;BME280;5404;42.656;23.336;2023-07-20T08:05:09;94455.75;;;27.93;100.00
10706;BME280;5404;42.656;23.336;2023-07-20T08:07:36;94483.31;;;28.05;100.00
10706;BME280;5404;42.656;23.336;2023-07-20T08:10:02;94497.03;;;28.05;100.00
10706;BME280;5404;42.656;23.336;2023-07-20T08:12:28;94495.13;;;28.02;100.00
10706;BME280;5404;42.656;23.336;2023-07-20T08:14:53;94519.16;;;28.18;100.00
10706;BME280;5404;42.656;23.336;2023-07-20T08:17:19;94525.66;;;28.01;100.00
10706;BME280;5404;42.656;23.336;2023-07-20T08:19:46;94451.97;;;27.49;100.00
10706;BME280;5404;42.656;23.336;2023-07-20T08:22:11;94518.38;;;27.91;100.00
10706;BME280;5404;42.656;23.336;2023-07-20T08:24:41;94519.22;;;27.84;100.00
10706;BME280;5404;42.656;23.336;2023-07-20T08:27:07;94477.75;;;27.52;100.00
10706;BME280;5404;42.656;23.336;2023-07-20T08:29:33;94534.81;;;27.91;100.00
10706;BME280;5404;42.656;23.336;2023-07-20T08:32:01;94524.31;;;27.48;100.00
10706;BME280;5404;42.656;23.336;2023-07-20T08:34:26;94543.56;;;26.97;100.00
10706;BME280;5404;42.656;23.336;2023-07-20T08:36:52;94525.16;;;27.05;100.00
10706;BME280;5404;42.656;23.336;2023-07-20T08:39:17;94489.91;;;26.70;100.00
10706;BME280;5404;42.656;23.336;2023-07-20T08:41:43;94527.13;;;27.01;100.00
10706;BME280;5404;42.656;23.336;2023-07-20T08:44:10;94522.34;;;27.12;100.00
10706;BME280;5404;42.656;23.336;2023-07-20T08:46:38;94449.25;;;26.75;100.00
10706;BME280;5404;42.656;23.336;2023-07-20T08:49:04;94521.88;;;27.20;100.00
10706;BME280;5404;42.656;23.336;2023-07-20T08:51:30;94525.69;;;27.30;100.00
10706;BME280;5404;42.656;23.336;2023-07-20T08:53:58;94519.78;;;27.35;100.00
10706;BME280;5404;42.656;23.336;2023-07-20T08:56:25;94514.13;;;27.52;100.00
10706;BME280;5404;42.656;23.336;2023-07-20T08:58:52;94514.53;;;27.51;100.00
10706;BME280;5404;42.656;23.336;2023-07-20T09:01:19;94510.44;;;27.66;100.00
10706;BME280;5404;42.656;23.336;2023-07-20T09:03:45;94515.69;;;27.84;100.00
10706;BME280;5404;42.656;23.336;2023-07-20T09:06:12;94500.69;;;27.95;100.00
10706;BME280;5404;42.656;23.336;2023-07-20T09:08:40;94406.59;;;27.52;100.00
10706;BME280;5404;42.656;23.336;2023-07-20T09:11:06;94495.25;;;27.92;100.00
10706;BME280;5404;42.656;23.336;2023-07-20T09:13:34;94484.16;;;28.02;100.00
10706;BME280;5404;42.656;23.336;2023-07-20T09:16:00;94501.94;;;27.91;100.00
10706;BME280;5404;42.656;23.336;2023-07-20T09:18:27;94486.72;;;28.43;100.00
10706;BME280;5404;42.656;23.336;2023-07-20T09:20:57;94495.00;;;29.51;100.00
10706;BME280;5404;42.656;23.336;2023-07-20T09:23:36;94495.97;;;31.04;100.00
10706;BME280;5404;42.656;23.336;2023-07-20T09:26:13;94453.69;;;31.96;93.81
10706;BME280;5404;42.656;23.336;2023-07-20T09:28:43;94484.41;;;33.20;84.57
10706;BME280;5404;42.656;23.336;2023-07-20T09:31:19;94474.44;;;33.78;76.43
10706;BME280;5404;42.656;23.336;2023-07-20T09:33:46;94484.66;;;33.90;78.62
10706;BME280;5404;42.656;23.336;2023-07-20T09:36:12;94476.44;;;33.56;78.23
10706;BME280;5404;42.656;23.336;2023-07-20T09:38:38;94472.31;;;33.61;73.46
10706;BME280;5404;42.656;23.336;2023-07-20T09:41:05;94489.03;;;33.23;69.79
10706;BME280;5404;42.656;23.336;2023-07-20T09:43:34;94476.75;;;33.37;68.59
10706;BME280;5404;42.656;23.336;2023-07-20T09:46:00;94454.94;;;33.94;63.59
10706;BME280;5404;42.656;23.336;2023-07-20T09:48:25;94397.31;;;33.71;62.13
10706;BME280;5404;42.656;23.336;2023-07-20T09:50:52;94478.78;;;34.32;62.35
10706;BME280;5404;42.656;23.336;2023-07-20T09:53:19;94473.41;;;34.59;60.43
10706;BME280;5404;42.656;23.336;2023-07-20T09:55:46;94453.28;;;34.37;61.84
10706;BME280;5404;42.656;23.336;2023-07-20T09:58:13;94434.53;;;34.80;59.69
10706;BME280;5404;42.656;23.336;2023-07-20T10:00:40;94397.63;;;34.83;58.82
10706;BME280;5404;42.656;23.336;2023-07-20T10:03:09;94295.97;;;33.16;62.04
10706;BME280;5404;42.656;23.336;2023-07-20T10:05:42;94438.59;;;33.44;63.13
10706;BME280;5404;42.656;23.336;2023-07-20T10:08:11;94373.63;;;32.50;59.87
10706;BME280;5404;42.656;23.336;2023-07-20T10:10:37;94445.31;;;32.37;60.39
10706;BME280;5404;42.656;23.336;2023-07-20T10:13:03;94387.84;;;31.32;69.46
10706;BME280;5404;42.656;23.336;2023-07-20T10:15:37;94459.47;;;31.44;70.18
10706;BME280;5404;42.656;23.336;2023-07-20T10:19:07;94449.31;;;31.13;71.79
10706;BME280;5404;42.656;23.336;2023-07-20T10:21:00;94463.97;;;30.94;75.60
10706;BME280;5404;42.656;23.336;2023-07-20T10:23:28;94469.66;;;30.87;79.61
10706;BME280;5404;42.656;23.336;2023-07-20T10:25:54;94363.09;;;30.42;78.94
10706;BME280;5404;42.656;23.336;2023-07-20T10:28:21;94430.94;;;30.77;78.37
10706;BME280;5404;42.656;23.336;2023-07-20T10:30:48;94464.56;;;31.01;78.17
10706;BME280;5404;42.656;23.336;2023-07-20T10:33:17;94457.50;;;31.16;81.18
10706;BME280;5404;42.656;23.336;2023-07-20T10:35:57;94387.94;;;31.00;80.45
10706;BME280;5404;42.656;23.336;2023-07-20T10:41:37;94442.22;;;31.98;76.62
10706;BME280;5404;42.656;23.336;2023-07-20T10:44:07;94443.91;;;32.08;76.22
10706;BME280;5404;42.656;23.336;2023-07-20T10:46:34;94435.72;;;31.91;76.78
10706;BME280;5404;42.656;23.336;2023-07-20T10:49:03;94390.47;;;31.76;79.83
10706;BME280;5404;42.656;23.336;2023-07-20T10:51:29;94356.09;;;31.81;79.17
10706;BME280;5404;42.656;23.336;2023-07-20T10:53:56;94383.63;;;31.68;81.73
10706;BME280;5404;42.656;23.336;2023-07-20T10:56:26;94416.03;;;31.64;86.91
10706;BME280;5404;42.656;23.336;2023-07-20T10:58:58;94386.09;;;31.38;89.04
10706;BME280;5404;42.656;23.336;2023-07-20T11:01:28;94395.84;;;31.42;90.29
10706;BME280;5404;42.656;23.336;2023-07-20T11:03:58;94378.63;;;31.38;88.20
10706;BME280;5404;42.656;23.336;2023-07-20T11:09:13;94361.34;;;31.22;83.95
10706;BME280;5404;42.656;23.336;2023-07-20T11:11:46;94367.31;;;31.49;89.16
10706;BME280;5404;42.656;23.336;2023-07-20T11:14:25;94305.97;;;31.32;87.57
10706;BME280;5404;42.656;23.336;2023-07-20T11:16:52;94379.91;;;31.87;86.86
10706;BME280;5404;42.656;23.336;2023-07-20T11:19:23;94381.03;;;32.03;86.49
10706;BME280;5404;42.656;23.336;2023-07-20T11:21:51;94375.06;;;32.42;85.59
10706;BME280;5404;42.656;23.336;2023-07-20T11:24:18;94384.19;;;32.64;80.20
10706;BME280;5404;42.656;23.336;2023-07-20T11:26:51;94349.47;;;32.75;81.14
10706;BME280;5404;42.656;23.336;2023-07-20T11:29:19;94350.22;;;32.88;80.19
10706;BME280;5404;42.656;23.336;2023-07-20T11:31:45;94352.69;;;33.08;81.36
10706;BME280;5404;42.656;23.336;2023-07-20T11:34:19;94359.69;;;33.22;78.94
10706;BME280;5404;42.656;23.336;2023-07-20T11:36:47;94339.34;;;33.50;78.10
10706;BME280;5404;42.656;23.336;2023-07-20T11:39:14;94357.19;;;33.58;79.79
10706;BME280;5404;42.656;23.336;2023-07-20T11:41:50;94282.50;;;33.18;78.10
10706;BME280;5404;42.656;23.336;2023-07-20T11:44:17;94343.38;;;33.36;81.38
10706;BME280;5404;42.656;23.336;2023-07-20T11:46:44;94336.75;;;33.34;82.15
10706;BME280;5404;42.656;23.336;2023-07-20T11:49:10;94244.50;;;32.79;82.74
10706;BME280;5404;42.656;23.336;2023-07-20T11:51:36;94309.78;;;33.38;80.30
10706;BME280;5404;42.656;23.336;2023-07-20T11:54:08;94255.03;;;32.93;82.00
10706;BME280;5404;42.656;23.336;2023-07-20T11:56:34;94328.06;;;33.66;84.63
10706;BME280;5404;42.656;23.336;2023-07-20T11:59:00;94324.13;;;33.85;76.66
10706;BME280;5404;42.656;23.336;2023-07-20T12:01:27;94310.25;;;33.97;79.16
10706;BME280;5404;42.656;23.336;2023-07-20T12:03:59;94254.38;;;33.72;69.61
10706;BME280;5404;42.656;23.336;2023-07-20T12:06:25;94313.38;;;34.17;70.46
10706;BME280;5404;42.656;23.336;2023-07-20T12:08:53;94308.44;;;34.12;69.04
10706;BME280;5404;42.656;23.336;2023-07-20T12:11:37;94313.81;;;34.07;73.23
10706;BME280;5404;42.656;23.336;2023-07-20T12:14:04;94232.97;;;33.54;67.88
10706;BME280;5404;42.656;23.336;2023-07-20T12:16:31;94316.25;;;34.05;71.53
10706;BME280;5404;42.656;23.336;2023-07-20T12:19:05;94301.63;;;33.95;67.20
10706;BME280;5404;42.656;23.336;2023-07-20T12:21:31;94295.47;;;33.91;65.54
10706;BME280;5404;42.656;23.336;2023-07-20T12:23:58;94238.41;;;33.67;60.51
10706;BME280;5404;42.656;23.336;2023-07-20T12:26:24;94311.69;;;34.20;54.87
10706;BME280;5404;42.656;23.336;2023-07-20T12:28:51;94288.50;;;33.87;50.36
10706;BME280;5404;42.656;23.336;2023-07-20T12:31:16;94304.56;;;34.01;54.15
10706;BME280;5404;42.656;23.336;2023-07-20T12:33:42;94291.34;;;33.96;58.34
10706;BME280;5404;42.656;23.336;2023-07-20T12:36:09;94284.16;;;34.07;60.60
10706;BME280;5404;42.656;23.336;2023-07-20T12:38:36;94246.94;;;33.51;51.87
10706;BME280;5404;42.656;23.336;2023-07-20T12:41:03;94245.91;;;33.66;52.08
10706;BME280;5404;42.656;23.336;2023-07-20T12:43:30;94296.16;;;34.13;52.30
10706;BME280;5404;42.656;23.336;2023-07-20T12:45:57;94286.91;;;34.07;51.17
10706;BME280;5404;42.656;23.336;2023-07-20T12:48:23;94297.09;;;34.20;41.55
10706;BME280;5404;42.656;23.336;2023-07-20T12:50:49;94300.19;;;34.31;39.30
10706;BME280;5404;42.656;23.336;2023-07-20T12:53:15;94293.50;;;34.50;40.50
10706;BME280;5404;42.656;23.336;2023-07-20T12:55:40;94291.31;;;34.54;39.88
10706;BME280;5404;42.656;23.336;2023-07-20T12:58:07;94288.25;;;34.70;41.14
10706;BME280;5404;42.656;23.336;2023-07-20T13:00:32;94289.81;;;34.62;42.25
10706;BME280;5404;42.656;23.336;2023-07-20T13:02:57;94285.66;;;34.75;41.96
10706;BME280;5404;42.656;23.336;2023-07-20T13:05:24;94292.41;;;34.56;44.17
10706;BME280;5404;42.656;23.336;2023-07-20T13:07:50;94256.09;;;34.36;46.00